createdAt,value
2019-05-05T14:45:15.300Z,46.92
2019-05-05T14:47:44.295Z,47.52
2019-05-05T14:50:13.455Z,47.34
2019-05-05T14:52:43.989Z,46.76
2019-05-05T14:55:14.020Z,46.33
2019-05-05T14:57:44.083Z,46.75
2019-05-05T15:00:17.126Z,46.59
2019-05-05T15:02:46.145Z,46.77
2019-05-05T15:05:33.817Z,49.04
2019-05-05T15:08:14.825Z,47.20
2019-05-05T15:11:00.650Z,48.35
2019-05-05T15:13:29.418Z,48.23
2019-05-05T15:15:58.245Z,48.23
2019-05-05T15:18:26.989Z,48.55
2019-05-05T15:20:55.845Z,50.09
2019-05-05T15:23:24.705Z,48.39
2019-05-05T15:25:54.075Z,47.58
2019-05-05T15:28:24.529Z,48.64
2019-05-05T15:30:54.510Z,47.09
2019-05-05T15:33:24.369Z,48.33
2019-05-05T15:35:53.956Z,49.32
2019-05-05T15:38:24.409Z,47.25
2019-05-05T15:40:54.718Z,47.65
2019-05-05T15:43:24.364Z,47.64
2019-05-05T15:45:54.167Z,48.22
2019-05-05T15:48:23.327Z,49.43
2019-05-05T15:50:54.483Z,48.36
2019-05-05T15:53:23.491Z,48.90
2019-05-05T15:55:54.009Z,48.89
2019-05-05T15:58:23.611Z,49.42
2019-05-05T16:00:53.816Z,49.69
2019-05-05T16:03:22.919Z,50.83
2019-05-05T16:05:54.122Z,50.56
2019-05-05T16:08:22.810Z,51.14
2019-05-05T16:10:51.911Z,52.14
2019-05-05T16:13:20.984Z,52.00
2019-05-05T16:15:59.332Z,51.58
2019-05-05T16:18:46.261Z,52.88
2019-05-05T16:21:38.054Z,53.04
2019-05-05T16:24:16.320Z,53.88
2019-05-05T16:26:45.205Z,55.48
2019-05-05T16:29:14.832Z,57.23
2019-05-05T16:31:43.877Z,57.61
2019-05-05T16:34:14.239Z,57.84
2019-05-05T16:36:43.992Z,59.62
2019-05-05T16:39:13.847Z,58.96
2019-05-05T16:41:44.043Z,57.77
2019-05-05T16:44:15.563Z,58.80
2019-05-05T16:46:43.970Z,58.24
2019-05-05T16:49:14.041Z,57.89
2019-05-05T16:51:49.040Z,57.20
2019-05-05T16:54:24.801Z,56.61
2019-05-05T16:56:53.797Z,56.64
2019-05-05T16:59:23.730Z,56.09
2019-05-05T17:01:54.114Z,56.14
2019-05-05T17:04:24.334Z,54.23
2019-05-05T17:06:54.671Z,54.14
2019-05-05T17:09:24.208Z,55.17
2019-05-05T17:12:18.439Z,55.66
2019-05-05T17:15:21.572Z,55.59
2019-05-05T17:17:59.307Z,56.42
2019-05-05T17:20:30.143Z,57.81
2019-05-05T17:23:05.014Z,60.61
2019-05-05T17:25:35.354Z,62.33
2019-05-05T17:28:04.623Z,63.67
2019-05-05T17:30:34.180Z,63.67
2019-05-05T17:33:03.784Z,63.29
2019-05-05T17:35:33.725Z,64.56
2019-05-05T17:38:11.291Z,63.80
2019-05-05T17:40:58.193Z,63.80
2019-05-05T17:43:45.253Z,63.91
2019-05-05T17:46:27.978Z,64.27
2019-05-05T17:49:07.698Z,64.70
2019-05-05T17:52:05.365Z,63.91
2019-05-05T17:54:55.799Z,65.54
2019-05-05T17:57:24.666Z,64.78
2019-05-05T17:59:53.885Z,64.05
2019-05-05T18:02:23.700Z,65.14
2019-05-05T18:04:54.113Z,63.60
2019-05-05T18:07:28.229Z,63.01
2019-05-05T18:10:19.205Z,63.01
2019-05-05T18:13:09.875Z,64.28
2019-05-05T18:15:55.918Z,64.17
2019-05-05T18:18:25.055Z,64.41
2019-05-05T18:20:54.312Z,64.40
2019-05-05T18:23:23.485Z,65.58
2019-05-05T18:25:52.347Z,66.20
2019-05-05T18:28:21.239Z,66.56
2019-05-05T18:30:51.270Z,66.56
2019-05-05T18:33:21.824Z,66.46
2019-05-05T18:35:50.992Z,67.22
2019-05-05T18:38:19.771Z,67.22
2019-05-05T18:40:49.491Z,67.84
2019-05-05T18:43:24.468Z,68.72
2019-05-05T18:46:04.635Z,68.37
2019-05-05T18:48:34.561Z,69.65
2019-05-05T18:51:03.962Z,70.61
2019-05-05T18:53:34.135Z,70.61
2019-05-05T18:56:03.746Z,71.24
2019-05-05T18:58:35.106Z,70.46
2019-05-05T19:01:27.971Z,71.15
2019-05-05T19:04:28.320Z,71.15
2019-05-05T19:07:10.394Z,70.83
2019-05-05T19:09:51.136Z,71.83
2019-05-05T19:12:10.328Z,71.78
2019-05-05T19:14:39.199Z,71.60
2019-05-05T19:17:08.062Z,71.68
2019-05-05T19:19:38.418Z,71.59
2019-05-05T19:22:09.761Z,72.93
2019-05-05T19:24:38.494Z,73.57
2019-05-05T19:27:07.236Z,73.47
2019-05-05T19:29:36.038Z,74.29
2019-05-05T19:32:04.920Z,74.31
2019-05-05T19:34:35.394Z,74.57
2019-05-05T19:37:04.196Z,74.57
2019-05-05T19:39:34.463Z,74.26
2019-05-05T19:42:04.804Z,75.92
2019-05-05T19:44:33.895Z,74.81
2019-05-05T19:47:09.844Z,76.62
2019-05-05T19:49:40.221Z,78.18
2019-05-05T19:52:08.980Z,77.26
2019-05-05T19:54:41.043Z,77.88
2019-05-05T19:57:09.743Z,77.96
2019-05-05T19:59:38.544Z,77.79
2019-05-05T20:02:08.192Z,77.86
2019-05-05T20:04:36.935Z,77.59
2019-05-05T20:07:05.756Z,77.75
2019-05-05T20:09:34.483Z,77.34
2019-05-05T20:12:04.014Z,76.52
2019-05-05T20:14:34.210Z,77.01
2019-05-05T20:17:11.495Z,78.11
2019-05-05T20:19:44.096Z,78.58
2019-05-05T20:22:14.584Z,77.85
2019-05-05T20:24:44.406Z,78.53
2019-05-05T20:27:14.089Z,77.58
2019-05-05T20:29:42.897Z,78.14
2019-05-05T20:32:13.935Z,78.41
2019-05-05T20:35:07.931Z,78.75
2019-05-05T20:37:42.050Z,78.15
2019-05-05T20:40:14.572Z,77.84
2019-05-05T20:42:44.752Z,77.37
2019-05-05T20:45:16.319Z,76.56
2019-05-05T20:47:45.057Z,77.03
2019-05-05T20:50:13.946Z,75.84
2019-05-05T20:52:44.231Z,76.09
2019-05-05T20:55:14.103Z,75.80
2019-05-05T20:57:44.296Z,76.92
2019-05-05T21:00:15.709Z,76.69
2019-05-05T21:02:44.524Z,76.62
2019-05-05T21:05:14.599Z,77.08
2019-05-05T21:07:44.379Z,76.89
2019-05-05T21:10:14.433Z,77.51
2019-05-05T21:12:45.552Z,78.75
2019-05-05T21:15:14.437Z,78.43
2019-05-05T21:17:44.963Z,79.10
2019-05-05T21:20:14.543Z,78.75
2019-05-05T21:23:03.672Z,79.34
2019-05-05T21:25:34.709Z,79.17
2019-05-05T21:28:03.910Z,80.00
2019-05-05T21:30:33.739Z,80.75
2019-05-05T21:33:04.375Z,81.05
2019-05-05T21:35:34.888Z,81.60
2019-05-05T21:38:04.699Z,81.65
2019-05-05T21:40:34.637Z,81.16
2019-05-05T21:43:04.930Z,81.36
2019-05-05T21:45:34.723Z,81.86
2019-05-05T21:48:04.455Z,83.38
2019-05-05T21:50:41.659Z,84.27
2019-05-05T21:53:15.802Z,83.55
2019-05-05T21:56:04.215Z,82.67
2019-05-05T21:58:43.813Z,82.85
2019-05-05T22:01:15.489Z,82.29
2019-05-05T22:03:44.527Z,81.13
2019-05-05T22:06:14.642Z,80.08
2019-05-05T22:08:43.656Z,81.27
2019-05-05T22:11:14.116Z,81.38
2019-05-05T22:13:44.238Z,81.09
2019-05-05T22:16:13.719Z,81.06
2019-05-05T22:18:44.705Z,82.22
2019-05-05T22:21:43.571Z,82.69
2019-05-05T22:24:19.146Z,83.20
2019-05-05T22:26:47.876Z,83.09
2019-05-05T22:29:17.334Z,83.08
2019-05-05T22:31:46.226Z,82.62
2019-05-05T22:34:15.008Z,82.81
2019-05-05T22:36:44.906Z,83.90
2019-05-05T22:39:16.443Z,83.77
2019-05-05T22:41:44.725Z,84.07
2019-05-05T22:44:14.067Z,84.51
2019-05-05T22:46:42.878Z,85.35
2019-05-05T22:49:11.716Z,85.39
2019-05-05T22:51:44.673Z,85.63
2019-05-05T22:54:14.898Z,85.95
2019-05-05T22:56:44.807Z,86.92
2019-05-05T22:59:14.028Z,86.49
2019-05-05T23:01:42.914Z,86.01
2019-05-05T23:04:20.148Z,85.87
2019-05-05T23:06:54.217Z,86.19
2019-05-05T23:09:23.000Z,85.63
2019-05-05T23:11:51.697Z,86.31
2019-05-05T23:14:29.833Z,86.61
2019-05-05T23:17:17.872Z,85.74
2019-05-05T23:19:53.872Z,86.36
2019-05-05T23:22:48.098Z,86.47
2019-05-05T23:25:24.186Z,86.68
2019-05-05T23:27:54.742Z,86.90
2019-05-05T23:30:37.661Z,86.67
2019-05-05T23:32:54.943Z,87.46
2019-05-05T23:35:24.143Z,87.65
2019-05-05T23:37:55.059Z,87.31
2019-05-05T23:40:27.290Z,87.58
2019-05-05T23:42:56.067Z,87.38
2019-05-05T23:45:25.202Z,86.86
2019-05-05T23:47:54.580Z,86.76
2019-05-05T23:50:23.692Z,86.86
2019-05-05T23:52:54.518Z,87.40
2019-05-05T23:55:23.941Z,87.83
2019-05-05T23:57:54.693Z,88.89
